createdAt,value
2018-05-26T00:01:53.869Z,16.00
2018-05-26T00:04:19.942Z,16.00
2018-05-26T00:06:46.722Z,15.90
2018-05-26T00:09:12.763Z,15.90
2018-05-26T00:11:38.805Z,16.00
2018-05-26T00:14:04.826Z,16.00
2018-05-26T00:16:30.861Z,16.10
2018-05-26T00:18:56.902Z,16.10
2018-05-26T00:21:22.950Z,16.10
2018-05-26T00:23:48.978Z,16.10
2018-05-26T00:26:15.018Z,16.00
2018-05-26T00:28:41.042Z,16.00
2018-05-26T00:31:07.082Z,15.90
2018-05-26T00:33:33.115Z,15.90
2018-05-26T00:35:59.217Z,15.90
2018-05-26T00:38:25.986Z,15.80
2018-05-26T00:40:52.767Z,15.80
2018-05-26T00:43:18.797Z,15.70
2018-05-26T00:45:44.826Z,15.70
2018-05-26T00:48:10.850Z,15.70
2018-05-26T00:50:36.890Z,15.60
2018-05-26T00:53:02.934Z,15.60
2018-05-26T00:55:28.970Z,15.60
2018-05-26T00:57:55.010Z,15.60
2018-05-26T01:00:21.056Z,15.50
2018-05-26T01:02:47.090Z,15.50
2018-05-26T01:05:13.134Z,15.40
2018-05-26T01:07:39.177Z,15.40
2018-05-26T01:10:05.201Z,15.40
2018-05-26T01:12:31.235Z,15.40
2018-05-26T01:14:57.246Z,15.30
2018-05-26T01:17:23.275Z,15.30
2018-05-26T01:19:50.030Z,15.40
2018-05-26T01:22:16.809Z,15.40
2018-05-26T01:24:42.819Z,15.40
2018-05-26T01:27:09.590Z,15.40
2018-05-26T01:29:35.606Z,15.40
2018-05-26T01:32:02.365Z,15.30
2018-05-26T01:34:29.126Z,15.30
2018-05-26T01:36:55.153Z,15.30
2018-05-26T01:39:21.918Z,15.30
2018-05-26T01:41:47.942Z,15.30
2018-05-26T01:44:14.709Z,15.30
2018-05-26T01:46:40.730Z,15.30
2018-05-26T01:49:07.494Z,15.30
2018-05-26T01:51:33.524Z,15.30
2018-05-26T01:54:00.294Z,15.20
2018-05-26T01:56:26.301Z,15.20
2018-05-26T01:58:53.070Z,15.10
2018-05-26T02:01:19.089Z,15.10
2018-05-26T02:03:45.854Z,15.10
2018-05-26T02:06:12.613Z,15.10
2018-05-26T02:08:38.650Z,15.00
2018-05-26T02:11:04.665Z,15.10
2018-05-26T02:13:31.441Z,14.90
2018-05-26T02:15:57.465Z,14.90
2018-05-26T02:18:24.230Z,14.90
2018-05-26T02:20:50.257Z,14.90
2018-05-26T02:23:17.061Z,14.90
2018-05-26T02:25:43.101Z,14.90
2018-05-26T02:28:09.162Z,14.90
2018-05-26T02:30:35.918Z,14.90
2018-05-26T02:33:01.993Z,14.90
2018-05-26T02:35:28.013Z,14.90
2018-05-26T02:37:54.820Z,14.90
2018-05-26T02:40:20.851Z,14.90
2018-05-26T02:42:46.894Z,14.90
2018-05-26T02:45:12.905Z,14.90
2018-05-26T02:47:38.938Z,14.90
2018-05-26T02:50:04.970Z,14.80
2018-05-26T02:52:30.989Z,14.80
2018-05-26T02:54:57.025Z,14.80
2018-05-26T02:57:23.046Z,14.80
2018-05-26T02:59:49.823Z,14.70
2018-05-26T03:02:15.841Z,14.70
2018-05-26T03:04:48.910Z,14.70
2018-05-26T03:07:20.979Z,14.70
2018-05-26T03:09:53.191Z,14.70
2018-05-26T03:12:25.979Z,14.70
2018-05-26T03:14:52.689Z,14.70
2018-05-26T03:17:18.725Z,14.60
2018-05-26T03:19:44.745Z,14.70
2018-05-26T03:22:10.755Z,14.60
2018-05-26T03:24:37.511Z,14.70
2018-05-26T03:27:03.524Z,14.70
2018-05-26T03:29:29.533Z,14.70
2018-05-26T03:31:55.540Z,14.80
2018-05-26T03:34:21.557Z,14.80
2018-05-26T03:36:48.305Z,14.80
2018-05-26T03:39:15.069Z,14.80
2018-05-26T03:41:41.076Z,14.80
2018-05-26T03:44:07.094Z,14.80
2018-05-26T03:46:33.121Z,14.80
2018-05-26T03:48:59.167Z,14.80
2018-05-26T03:51:25.181Z,14.80
2018-05-26T03:53:51.206Z,14.80
2018-05-26T03:56:29.699Z,14.80
2018-05-26T03:59:08.867Z,14.80
2018-05-26T04:01:34.884Z,14.80
2018-05-26T04:04:01.644Z,14.80
2018-05-26T04:06:28.546Z,14.90
2018-05-26T04:08:54.577Z,14.90
2018-05-26T04:11:20.581Z,14.90
2018-05-26T04:13:46.594Z,14.90
2018-05-26T04:16:12.636Z,14.90
2018-05-26T04:18:38.642Z,14.90
2018-05-26T04:21:04.669Z,15.00
2018-05-26T04:23:30.692Z,15.00
2018-05-26T04:25:56.709Z,15.10
2018-05-26T04:28:22.718Z,15.10
2018-05-26T04:30:48.729Z,15.20
2018-05-26T04:33:15.481Z,15.30
2018-05-26T04:35:42.234Z,15.30
2018-05-26T04:38:08.985Z,15.40
2018-05-26T04:40:35.744Z,15.40
2018-05-26T04:43:03.857Z,15.40
2018-05-26T04:45:29.956Z,15.40
2018-05-26T04:47:56.704Z,15.60
2018-05-26T04:50:23.461Z,15.70
2018-05-26T04:52:51.426Z,15.70
2018-05-26T04:55:17.533Z,15.70
2018-05-26T04:57:43.538Z,15.80
2018-05-26T05:00:09.556Z,15.90
2018-05-26T05:02:36.313Z,16.20
2018-05-26T05:05:03.081Z,16.30
2018-05-26T05:07:29.085Z,16.30
2018-05-26T05:09:55.874Z,16.50
2018-05-26T05:12:21.898Z,16.50
2018-05-26T05:14:47.913Z,16.60
2018-05-26T05:17:14.693Z,16.70
2018-05-26T05:19:40.715Z,16.70
2018-05-26T05:22:07.477Z,16.90
2018-05-26T05:24:33.521Z,16.90
2018-05-26T05:26:59.549Z,16.90
2018-05-26T05:29:25.565Z,17.00
2018-05-26T05:31:52.341Z,17.00
2018-05-26T05:34:18.365Z,17.00
2018-05-26T05:36:45.148Z,17.20
2018-05-26T05:39:11.174Z,17.10
2018-05-26T05:41:37.200Z,17.20
2018-05-26T05:44:03.229Z,17.20
2018-05-26T05:46:29.255Z,17.30
2018-05-26T05:48:56.044Z,17.30
2018-05-26T05:51:22.077Z,17.30
2018-05-26T05:53:48.096Z,17.40
2018-05-26T05:56:14.201Z,17.50
2018-05-26T05:58:40.236Z,17.50
2018-05-26T06:01:06.262Z,17.60
2018-05-26T06:03:32.274Z,17.70
2018-05-26T06:05:58.310Z,17.80
2018-05-26T06:08:24.338Z,17.80
2018-05-26T06:10:50.357Z,17.90
2018-05-26T06:13:16.384Z,18.00
2018-05-26T06:15:42.462Z,18.10
2018-05-26T06:18:08.495Z,18.20
2018-05-26T06:20:34.513Z,18.40
2018-05-26T06:23:00.561Z,18.50
2018-05-26T06:25:26.588Z,18.60
2018-05-26T06:27:52.625Z,18.80
2018-05-26T06:30:18.650Z,19.00
2018-05-26T06:32:44.721Z,19.10
2018-05-26T06:35:10.767Z,19.20
2018-05-26T06:37:36.824Z,19.50
2018-05-26T06:40:02.848Z,19.60
2018-05-26T06:42:29.639Z,20.00
2018-05-26T06:44:55.661Z,20.00
2018-05-26T06:47:21.709Z,20.20
2018-05-26T06:49:47.726Z,20.20
2018-05-26T06:52:13.761Z,20.50
2018-05-26T06:54:40.529Z,20.90
2018-05-26T06:57:06.557Z,20.90
2018-05-26T06:59:32.589Z,21.00
2018-05-26T07:01:58.618Z,21.10
2018-05-26T07:04:25.402Z,21.80
2018-05-26T07:06:51.422Z,21.70
2018-05-26T07:09:17.466Z,22.00
2018-05-26T07:11:43.469Z,22.20
2018-05-26T07:14:10.227Z,22.40
2018-05-26T07:16:36.989Z,23.20
2018-05-26T07:19:03.005Z,23.20
2018-05-26T07:21:29.769Z,24.60
2018-05-26T07:23:56.541Z,25.30
2018-05-26T07:26:22.544Z,25.20
2018-05-26T07:28:49.304Z,26.80
2018-05-26T07:31:16.087Z,27.50
2018-05-26T07:33:42.153Z,27.40
2018-05-26T07:36:08.133Z,28.00
2018-05-26T07:38:34.897Z,28.70
2018-05-26T07:41:00.921Z,28.70
2018-05-26T07:43:27.267Z,28.70
2018-05-26T07:45:54.045Z,28.80
2018-05-26T07:48:20.070Z,28.70
2018-05-26T07:50:46.111Z,29.10
2018-05-26T07:53:12.235Z,29.70
2018-05-26T07:55:38.209Z,30.30
2018-05-26T07:58:04.260Z,30.50
2018-05-26T08:00:30.322Z,30.70
2018-05-26T08:02:56.341Z,31.20
2018-05-26T08:05:22.378Z,32.00
2018-05-26T08:07:48.369Z,32.40
2018-05-26T08:10:14.385Z,32.20
2018-05-26T08:12:40.393Z,32.90
2018-05-26T08:15:06.509Z,33.10
2018-05-26T08:17:32.516Z,33.60
2018-05-26T08:19:58.539Z,33.40
2018-05-26T08:22:24.557Z,33.60
2018-05-26T08:24:50.609Z,33.70
2018-05-26T08:27:16.731Z,33.60
2018-05-26T08:29:42.783Z,34.30
2018-05-26T08:32:08.842Z,33.80
2018-05-26T08:34:34.919Z,33.20
2018-05-26T08:37:01.666Z,32.90
2018-05-26T08:39:28.432Z,33.00
2018-05-26T08:41:55.241Z,32.80
2018-05-26T08:44:21.310Z,32.80
2018-05-26T08:46:47.314Z,32.10
2018-05-26T08:49:13.389Z,31.90
2018-05-26T08:51:40.186Z,30.40
2018-05-26T08:54:06.255Z,30.30
2018-05-26T08:56:32.225Z,30.50
2018-05-26T08:58:58.973Z,30.90
2018-05-26T09:01:25.738Z,30.80
2018-05-26T09:03:51.873Z,30.90
2018-05-26T09:06:17.937Z,31.00
2018-05-26T09:08:44.721Z,32.30
2018-05-26T09:11:10.779Z,32.30
2018-05-26T09:13:37.650Z,33.30
2018-05-26T09:16:04.522Z,33.60
2018-05-26T09:18:30.649Z,33.50
2018-05-26T09:20:56.697Z,33.70
2018-05-26T09:23:22.794Z,34.00
2018-05-26T09:25:48.806Z,33.80
2018-05-26T09:28:14.845Z,33.60
2018-05-26T09:30:40.856Z,34.10
2018-05-26T09:33:06.942Z,34.20
2018-05-26T09:35:32.984Z,33.60
2018-05-26T09:37:59.743Z,34.00
2018-05-26T09:40:26.523Z,34.20
2018-05-26T09:42:52.527Z,34.20
2018-05-26T09:45:19.281Z,35.30
2018-05-26T09:47:46.093Z,35.30
2018-05-26T09:50:12.162Z,35.20
2018-05-26T09:52:38.181Z,34.90
2018-05-26T09:55:04.314Z,34.70
2018-05-26T09:57:30.363Z,34.50
2018-05-26T09:59:56.357Z,34.70
2018-05-26T10:02:22.369Z,34.80
2018-05-26T10:04:48.446Z,35.00
2018-05-26T10:07:14.521Z,34.70
2018-05-26T10:09:41.286Z,34.60
2018-05-26T10:12:08.083Z,34.90
2018-05-26T10:14:34.100Z,34.90
2018-05-26T10:17:00.145Z,34.50
2018-05-26T10:19:26.150Z,34.40
2018-05-26T10:21:52.181Z,34.30
2018-05-26T10:24:18.939Z,34.40
2018-05-26T10:26:44.970Z,34.40
2018-05-26T10:29:11.741Z,34.80
2018-05-26T10:31:37.791Z,34.80
2018-05-26T10:34:03.817Z,35.40
2018-05-26T10:36:29.935Z,35.60
2018-05-26T10:38:55.986Z,35.40
2018-05-26T10:41:22.006Z,35.40
2018-05-26T10:43:48.047Z,35.10
2018-05-26T10:46:23.334Z,35.30
2018-05-26T10:48:49.404Z,34.70
2018-05-26T10:51:16.167Z,34.20
2018-05-26T10:53:42.983Z,34.10
2018-05-26T10:56:09.101Z,34.00
2018-05-26T10:58:35.186Z,33.60
2018-05-26T11:01:01.230Z,32.90
2018-05-26T11:03:27.260Z,33.00
2018-05-26T11:05:53.302Z,32.50
2018-05-26T11:08:20.079Z,32.50
2018-05-26T11:10:46.089Z,32.50
2018-05-26T11:13:12.109Z,32.90
2018-05-26T11:15:38.134Z,33.20
2018-05-26T11:18:04.145Z,33.40
2018-05-26T11:20:30.185Z,33.10
2018-05-26T11:22:56.223Z,33.30
2018-05-26T11:25:22.249Z,33.50
2018-05-26T11:27:48.279Z,34.00
2018-05-26T11:30:14.283Z,34.00
2018-05-26T11:32:41.051Z,34.20
2018-05-26T11:35:07.073Z,34.20
2018-05-26T11:37:33.861Z,34.70
2018-05-26T11:39:59.873Z,34.70
2018-05-26T11:42:26.648Z,34.20
2018-05-26T11:44:52.739Z,34.20
2018-05-26T11:47:18.744Z,34.30
2018-05-26T11:49:44.758Z,34.40
2018-05-26T11:52:12.465Z,34.40
2018-05-26T11:54:38.485Z,34.30
2018-05-26T11:57:04.494Z,34.40
2018-05-26T11:59:30.509Z,34.10
2018-05-26T12:01:57.268Z,33.40
2018-05-26T12:04:24.027Z,33.40
2018-05-26T12:06:50.043Z,33.30
2018-05-26T12:09:16.073Z,33.90
2018-05-26T12:11:42.110Z,33.80
2018-05-26T12:14:08.145Z,34.30
2018-05-26T12:16:34.173Z,34.90
2018-05-26T12:19:00.306Z,35.20
2018-05-26T12:21:26.369Z,35.30
2018-05-26T12:23:53.137Z,35.30
2018-05-26T12:26:19.174Z,35.30
2018-05-26T12:28:45.205Z,35.50
2018-05-26T12:31:11.972Z,35.60
2018-05-26T12:33:38.030Z,35.60
2018-05-26T12:36:04.063Z,35.30
2018-05-26T12:38:30.082Z,34.30
2018-05-26T12:40:56.128Z,34.30
2018-05-26T12:43:22.152Z,35.10
2018-05-26T12:45:48.182Z,35.50
2018-05-26T12:48:14.213Z,35.90
2018-05-26T12:50:40.994Z,35.70
2018-05-26T12:53:07.022Z,35.70
2018-05-26T12:55:33.076Z,35.30
2018-05-26T12:57:59.090Z,34.10
2018-05-26T13:00:25.121Z,33.50
2018-05-26T13:02:51.136Z,33.60
2018-05-26T13:05:17.913Z,34.60
2018-05-26T13:07:43.946Z,34.60
2018-05-26T13:10:09.985Z,34.70
2018-05-26T13:12:35.993Z,34.70
2018-05-26T13:15:02.775Z,34.10
2018-05-26T13:17:28.797Z,34.10
2018-05-26T13:19:55.560Z,32.80
2018-05-26T13:22:21.589Z,32.80
2018-05-26T13:24:48.346Z,30.70
2018-05-26T13:27:14.378Z,30.60
2018-05-26T13:29:40.419Z,29.60
2018-05-26T13:32:07.187Z,28.60
2018-05-26T13:34:33.209Z,28.60
2018-05-26T13:36:59.234Z,28.20
2018-05-26T13:39:25.997Z,27.30
2018-05-26T13:41:52.773Z,27.50
2018-05-26T13:44:18.791Z,27.50
2018-05-26T13:46:44.825Z,28.70
2018-05-26T13:49:11.631Z,31.10
2018-05-26T13:51:37.719Z,31.00
2018-05-26T13:54:03.703Z,32.10
2018-05-26T13:56:29.776Z,32.60
2018-05-26T13:58:55.777Z,33.20
2018-05-26T14:01:21.804Z,33.50
2018-05-26T14:03:47.830Z,33.50
2018-05-26T14:06:13.865Z,33.90
2018-05-26T14:08:39.885Z,34.30
2018-05-26T14:11:05.902Z,34.20
2018-05-26T14:13:31.902Z,34.00
2018-05-26T14:15:57.928Z,33.90
2018-05-26T14:18:23.941Z,34.00
2018-05-26T14:20:49.961Z,34.50
2018-05-26T14:23:15.978Z,33.70
2018-05-26T14:25:42.739Z,33.30
2018-05-26T14:28:08.764Z,33.20
2018-05-26T14:30:35.577Z,33.70
2018-05-26T14:33:01.598Z,33.70
2018-05-26T14:35:27.585Z,33.90
2018-05-26T14:37:54.348Z,34.30
2018-05-26T14:40:20.358Z,34.30
2018-05-26T14:42:46.389Z,33.70
2018-05-26T14:45:12.420Z,32.80
2018-05-26T14:47:38.454Z,32.20
2018-05-26T14:50:04.504Z,32.20
2018-05-26T14:52:30.513Z,32.10
2018-05-26T14:54:56.525Z,32.00
2018-05-26T14:57:22.541Z,32.30
2018-05-26T14:59:48.562Z,32.00
2018-05-26T15:02:15.360Z,31.60
2018-05-26T15:04:41.373Z,31.50
2018-05-26T15:07:07.385Z,31.60
2018-05-26T15:09:34.155Z,32.00
2018-05-26T15:12:00.177Z,31.90
2018-05-26T15:14:26.990Z,32.90
2018-05-26T15:16:53.101Z,32.90
2018-05-26T15:19:19.125Z,33.20
2018-05-26T15:21:45.150Z,33.30
2018-05-26T15:24:11.445Z,33.10
2018-05-26T15:26:37.453Z,32.40
2018-05-26T15:29:03.504Z,32.30
2018-05-26T15:31:29.533Z,31.90
2018-05-26T15:33:55.567Z,31.60
2018-05-26T15:36:21.588Z,31.20
2018-05-26T15:38:47.626Z,31.00
2018-05-26T15:41:13.653Z,30.60
2018-05-26T15:43:39.685Z,30.50
2018-05-26T15:46:05.731Z,30.50
2018-05-26T15:48:31.765Z,30.60
2018-05-26T15:50:57.781Z,30.60
2018-05-26T15:53:24.557Z,29.90
2018-05-26T15:55:50.629Z,29.90
2018-05-26T15:58:16.662Z,29.80
2018-05-26T16:00:42.677Z,29.80
2018-05-26T16:03:08.716Z,29.70
2018-05-26T16:05:34.745Z,29.40
2018-05-26T16:08:00.769Z,29.30
2018-05-26T16:10:26.786Z,29.40
2018-05-26T16:12:53.549Z,29.20
2018-05-26T16:15:19.574Z,29.20
2018-05-26T16:17:46.327Z,28.70
2018-05-26T16:20:13.105Z,28.20
2018-05-26T16:22:39.123Z,28.10
2018-05-26T16:25:05.897Z,27.90
2018-05-26T16:27:31.905Z,27.90
2018-05-26T16:29:58.670Z,27.50
2018-05-26T16:32:24.690Z,27.40
2018-05-26T16:34:51.452Z,27.20
2018-05-26T16:37:18.201Z,27.00
2018-05-26T16:39:44.961Z,27.00
2018-05-26T16:42:11.782Z,27.00
2018-05-26T16:44:37.804Z,27.00
2018-05-26T16:47:03.857Z,27.00
2018-05-26T16:49:37.775Z,26.60
2018-05-26T16:52:03.791Z,26.50
2018-05-26T16:54:29.824Z,26.60
2018-05-26T16:56:55.833Z,26.50
2018-05-26T16:59:28.814Z,26.60
2018-05-26T17:01:55.570Z,26.30
2018-05-26T17:04:22.339Z,26.30
2018-05-26T17:06:48.345Z,26.20
2018-05-26T17:09:15.137Z,26.20
2018-05-26T17:11:41.155Z,26.20
2018-05-26T17:14:07.167Z,26.10
2018-05-26T17:16:33.238Z,26.00
2018-05-26T17:18:59.318Z,25.90
2018-05-26T17:21:25.372Z,25.80
2018-05-26T17:23:51.493Z,25.70
2018-05-26T17:26:17.525Z,25.70
2018-05-26T17:28:43.546Z,25.60
2018-05-26T17:31:09.581Z,25.60
2018-05-26T17:33:35.653Z,25.50
2018-05-26T17:36:01.694Z,25.40
2018-05-26T17:38:28.462Z,25.40
2018-05-26T17:40:55.225Z,25.30
2018-05-26T17:43:21.277Z,25.30
2018-05-26T17:45:48.029Z,25.20
2018-05-26T17:48:14.045Z,25.20
2018-05-26T17:50:40.820Z,25.00
2018-05-26T17:53:06.834Z,25.00
2018-05-26T17:55:33.665Z,24.60
2018-05-26T17:57:59.719Z,24.60
2018-05-26T18:00:26.502Z,24.20
2018-05-26T18:02:52.545Z,24.20
2018-05-26T18:05:18.583Z,24.00
2018-05-26T18:07:44.611Z,23.80
2018-05-26T18:10:10.692Z,23.60
2018-05-26T18:12:36.738Z,23.40
2018-05-26T18:15:02.787Z,23.20
2018-05-26T18:17:29.572Z,22.90
2018-05-26T18:19:55.604Z,22.90
2018-05-26T18:22:21.868Z,22.80
2018-05-26T18:24:48.107Z,22.70
2018-05-26T18:27:14.150Z,22.60
2018-05-26T18:29:40.212Z,22.50
2018-05-26T18:32:06.363Z,22.40
2018-05-26T18:34:32.497Z,22.40
2018-05-26T18:36:58.631Z,22.30
2018-05-26T18:39:24.669Z,22.20
2018-05-26T18:41:50.713Z,22.20
2018-05-26T18:44:16.734Z,22.10
2018-05-26T18:46:42.773Z,22.00
2018-05-26T18:49:08.910Z,21.90
2018-05-26T18:51:34.957Z,21.80
2018-05-26T18:54:01.107Z,21.70
2018-05-26T18:56:27.876Z,21.50
2018-05-26T18:58:53.914Z,21.40
2018-05-26T19:01:19.941Z,21.40
2018-05-26T19:03:46.768Z,21.20
2018-05-26T19:06:12.793Z,21.20
2018-05-26T19:08:38.825Z,21.10
2018-05-26T19:11:04.869Z,21.00
2018-05-26T19:13:30.879Z,20.90
2018-05-26T19:15:56.940Z,20.80
2018-05-26T19:18:22.915Z,20.70
2018-05-26T19:20:49.673Z,20.60
2018-05-26T19:23:15.744Z,20.60
2018-05-26T19:25:41.773Z,20.60
2018-05-26T19:28:07.788Z,20.50
2018-05-26T19:30:33.790Z,20.50
2018-05-26T19:32:59.916Z,20.50
2018-05-26T19:35:25.930Z,20.50
2018-05-26T19:37:51.979Z,20.50
2018-05-26T19:40:17.998Z,20.50
2018-05-26T19:42:44.016Z,20.50
2018-05-26T19:45:10.056Z,20.50
2018-05-26T19:47:36.134Z,20.50
2018-05-26T19:50:02.208Z,20.50
2018-05-26T19:52:28.234Z,20.50
2018-05-26T19:54:54.288Z,20.60
2018-05-26T19:57:20.308Z,20.60
2018-05-26T19:59:47.077Z,20.60
2018-05-26T20:02:13.105Z,20.60
2018-05-26T20:04:39.129Z,20.60
2018-05-26T20:07:05.890Z,20.40
2018-05-26T20:09:32.657Z,20.40
2018-05-26T20:11:58.681Z,20.30
2018-05-26T20:14:25.439Z,20.30
2018-05-26T20:16:52.219Z,20.40
2018-05-26T20:19:18.291Z,20.40
2018-05-26T20:21:44.268Z,20.40
2018-05-26T20:24:10.289Z,20.30
2018-05-26T20:26:36.297Z,20.20
2018-05-26T20:29:02.333Z,20.10
2018-05-26T20:31:28.358Z,20.10
2018-05-26T20:33:54.381Z,19.90
2018-05-26T20:36:20.527Z,19.90
2018-05-26T20:38:46.568Z,19.80
2018-05-26T20:41:12.589Z,19.80
2018-05-26T20:43:38.661Z,19.80
2018-05-26T20:46:04.679Z,19.70
2018-05-26T20:48:30.694Z,19.70
2018-05-26T20:50:56.743Z,19.60
2018-05-26T20:53:22.789Z,19.60
2018-05-26T20:55:48.821Z,19.50
2018-05-26T20:58:14.961Z,19.50
2018-05-26T21:00:40.985Z,19.50
2018-05-26T21:03:07.009Z,19.50
2018-05-26T21:05:33.037Z,19.50
2018-05-26T21:07:59.059Z,19.50
2018-05-26T21:10:25.082Z,19.50
2018-05-26T21:12:51.105Z,19.40
2018-05-26T21:15:17.875Z,19.30
2018-05-26T21:17:43.916Z,19.20
2018-05-26T21:20:09.946Z,19.20
2018-05-26T21:22:35.973Z,19.20
2018-05-26T21:25:02.741Z,19.20
2018-05-26T21:27:28.766Z,19.20
2018-05-26T21:29:54.780Z,19.20
2018-05-26T21:32:20.784Z,19.20
2018-05-26T21:34:46.806Z,19.20
2018-05-26T21:37:12.831Z,19.10
2018-05-26T21:39:38.849Z,19.10
2018-05-26T21:42:04.885Z,19.10
2018-05-26T21:44:30.966Z,19.00
2018-05-26T21:46:56.990Z,19.00
2018-05-26T21:49:23.001Z,19.00
2018-05-26T21:51:49.028Z,19.00
2018-05-26T21:54:15.044Z,19.00
2018-05-26T21:56:41.798Z,19.00
2018-05-26T21:59:08.556Z,19.00
2018-05-26T22:01:35.329Z,19.00
2018-05-26T22:04:01.353Z,19.00
2018-05-26T22:06:27.416Z,18.90
2018-05-26T22:08:53.438Z,19.00
2018-05-26T22:11:19.469Z,18.90
2018-05-26T22:13:45.511Z,18.90
2018-05-26T22:16:11.545Z,18.90
2018-05-26T22:18:37.575Z,18.90
2018-05-26T22:21:03.614Z,18.90
2018-05-26T22:23:29.644Z,18.80
2018-05-26T22:25:55.673Z,18.90
2018-05-26T22:28:21.711Z,18.90
2018-05-26T22:30:47.734Z,19.00
2018-05-26T22:33:14.524Z,19.10
2018-05-26T22:35:40.581Z,19.10
2018-05-26T22:38:06.575Z,19.10
2018-05-26T22:40:32.614Z,19.10
2018-05-26T22:42:58.637Z,19.00
2018-05-26T22:45:25.416Z,18.90
2018-05-26T22:47:51.457Z,18.90
2018-05-26T22:50:17.475Z,18.90
2018-05-26T22:52:43.540Z,18.80
2018-05-26T22:55:09.579Z,18.80
2018-05-26T22:57:35.618Z,18.80
2018-05-26T23:00:01.646Z,18.70
2018-05-26T23:02:27.675Z,18.50
2018-05-26T23:04:53.697Z,18.50
2018-05-26T23:07:19.728Z,18.40
2018-05-26T23:09:45.765Z,18.40
2018-05-26T23:12:11.792Z,18.30
2018-05-26T23:14:37.820Z,18.30
2018-05-26T23:17:04.597Z,18.10
2018-05-26T23:19:30.624Z,18.10
2018-05-26T23:21:56.657Z,18.10
2018-05-26T23:24:22.688Z,18.10
2018-05-26T23:26:48.729Z,18.10
2018-05-26T23:29:14.762Z,18.10
2018-05-26T23:31:40.793Z,18.10
2018-05-26T23:34:06.833Z,18.10
2018-05-26T23:36:32.866Z,18.10
2018-05-26T23:38:58.887Z,18.10
2018-05-26T23:41:25.656Z,18.10
2018-05-26T23:43:51.702Z,18.10
2018-05-26T23:46:17.728Z,18.10
2018-05-26T23:48:43.757Z,18.10
2018-05-26T23:51:09.781Z,18.00
2018-05-26T23:53:36.564Z,18.00
2018-05-26T23:56:02.602Z,18.00
2018-05-26T23:58:28.654Z,18.00
